Strona główna
METAR-TAF:

METAR-TAF

Lotnisko :

Port lotniczy Tefé

Tefé, Amazonas, Brazylia

Szerokość geograficzna: 03-22S, Długość geograficzna: 064-41W, wysokość: 47 m

Aktualna obserwacja pogody

Raport powstał 5 godziny i 41 minut temu, godzina 21:00 UTC
Wiatr 2 kt od północ
Temperatura 28°C
Wilgotność 89%
Ciśnienie 1009 hPa
Widzialność 10 km lub więcej
Mało chmury na wysokości 2100 ft
Mało chmury na wysokości 2500 ft, Cumulusy wypiętrznone.

METAR: SBTF 032100Z 35002KT 9999 FEW021 FEW025TCU 28/26 Q1009

czas: 22:41 (02:41 UTC)

Prognoza

Raport powstał 5 godziny i 41 minut temu, godzina 21:00 UTC
Prognoza ważna od 04 godzina 00 UTC do 04 godzina 12 UTC
Wiatr 6 kt od południowy wschód
Widzialność 10 km lub więcej
Rozproszone chmury na wysokości 1200 ft

TAF: SBTF 032100Z 0400/0412 14006KT 9999 SCT012 TX27/0400Z TN25/0411Z RMK PEA

Obserwacja i prognoza pogody dla ponad 4000 lotnisk (raport METAR i TAF).

Dostępne stacje oznaczono żółtymi i czerwonymi punktami na mapie.

Najedź kursorem aby zobaczyć nazwę stacji.

Kliknij aby zobaczyć obserwacje i prognozy pogody.

Aby zmienić mapę: kliknij na zielony przycisk z czarnym krzyżykiem, aby powiększyć; na zielony przycisk z myślnikiem, aby pomniejszyć; na zielone strzałki, aby przejść do map sąsiednich.


METAR-TAF: